createdAt,value
2019-06-15T00:01:17.419Z,22.60
2019-06-15T00:06:14.490Z,21.80
2019-06-15T00:08:43.198Z,22.00
2019-06-15T00:18:36.896Z,22.00
2019-06-15T00:23:33.912Z,22.30
2019-06-15T00:30:59.256Z,21.80
2019-06-15T00:35:56.260Z,21.70
2019-06-15T00:38:24.955Z,21.80
2019-06-15T01:00:40.434Z,21.50
2019-06-15T01:08:05.789Z,21.50
2019-06-15T01:13:02.721Z,21.30
2019-06-15T01:17:59.796Z,21.60
2019-06-15T01:22:56.833Z,21.50
2019-06-15T01:25:25.567Z,21.70
2019-06-15T01:27:54.297Z,21.20
2019-06-15T01:30:23.339Z,22.00
2019-06-15T01:32:51.953Z,21.70
2019-06-15T01:35:20.683Z,21.60
2019-06-15T01:37:49.504Z,21.70
2019-06-15T01:40:18.542Z,21.60
2019-06-15T01:42:47.283Z,21.60
2019-06-15T01:45:18.504Z,21.70
2019-06-15T01:47:47.189Z,21.80
2019-06-15T01:50:15.935Z,21.60
2019-06-15T01:52:44.724Z,21.50
2019-06-15T01:55:20.841Z,21.30
2019-06-15T01:57:43.777Z,21.90
2019-06-15T02:00:21.199Z,21.10
2019-06-15T02:02:49.997Z,21.50
2019-06-15T02:05:18.875Z,21.20
2019-06-15T02:07:47.651Z,21.20
2019-06-15T02:10:17.452Z,20.90
2019-06-15T02:12:46.142Z,21.10
2019-06-15T02:15:15.609Z,21.00
2019-06-15T02:17:44.381Z,20.90
2019-06-15T02:20:13.449Z,21.00
2019-06-15T02:22:42.212Z,21.10
2019-06-15T02:25:11.049Z,21.00
2019-06-15T02:27:39.797Z,20.80
2019-06-15T02:30:09.915Z,20.70
2019-06-15T02:32:38.613Z,20.80
2019-06-15T02:35:08.459Z,20.80
2019-06-15T02:37:37.137Z,20.60
2019-06-15T02:40:09.054Z,21.00
2019-06-15T02:42:37.794Z,20.80
2019-06-15T02:45:07.520Z,20.80
2019-06-15T02:47:36.273Z,20.70
2019-06-15T02:50:08.318Z,21.00
2019-06-15T02:52:37.147Z,20.70
2019-06-15T02:55:07.469Z,21.20
2019-06-15T02:57:36.388Z,21.00
2019-06-15T03:00:07.301Z,21.00
2019-06-15T03:02:36.095Z,21.10
2019-06-15T03:05:06.952Z,20.90
2019-06-15T03:07:35.691Z,21.20
2019-06-15T03:10:06.645Z,21.10
2019-06-15T03:17:33.240Z,21.30
2019-06-15T03:20:01.863Z,20.90
2019-06-15T03:22:30.528Z,20.90
2019-06-15T03:24:59.284Z,21.60
2019-06-15T03:27:27.996Z,21.30
2019-06-15T03:29:56.725Z,21.50
2019-06-15T03:32:25.511Z,21.80
2019-06-15T03:34:54.196Z,22.10
2019-06-15T03:37:22.858Z,22.40
2019-06-15T03:39:51.562Z,22.50
2019-06-15T03:42:20.254Z,22.60
2019-06-15T03:44:49.010Z,23.00
2019-06-15T03:47:17.674Z,22.80
2019-06-15T03:49:46.458Z,23.80
2019-06-15T03:52:15.031Z,23.10
2019-06-15T03:54:43.768Z,23.00
2019-06-15T03:57:12.500Z,23.20
2019-06-15T03:59:41.136Z,23.10
2019-06-15T04:02:09.865Z,23.20
2019-06-15T04:04:38.544Z,23.00
2019-06-15T04:07:07.331Z,23.20
2019-06-15T04:09:35.987Z,23.20
2019-06-15T04:12:04.833Z,22.90
2019-06-15T04:14:33.530Z,23.30
2019-06-15T04:17:02.299Z,22.80
2019-06-15T04:19:30.866Z,22.80
2019-06-15T04:21:59.656Z,22.60
2019-06-15T04:24:28.261Z,22.50
2019-06-15T04:26:57.030Z,22.60
2019-06-15T04:29:25.695Z,22.10
2019-06-15T04:31:54.448Z,22.50
2019-06-15T04:34:23.207Z,22.30
2019-06-15T04:36:51.903Z,22.60
2019-06-15T04:39:20.635Z,22.30
2019-06-15T04:41:49.277Z,22.50
2019-06-15T04:44:18.040Z,22.20
2019-06-15T04:46:46.766Z,22.20
2019-06-15T04:49:15.443Z,22.40
2019-06-15T04:54:12.410Z,22.60
2019-06-15T04:56:50.603Z,22.60
2019-06-15T04:59:11.570Z,22.20
2019-06-15T05:01:40.248Z,21.80
2019-06-15T05:06:37.995Z,21.90
2019-06-15T05:09:07.315Z,21.70
2019-06-15T05:11:36.075Z,21.70
2019-06-15T05:14:04.946Z,21.70
2019-06-15T05:16:33.596Z,21.60
2019-06-15T05:19:02.356Z,21.70
2019-06-15T05:21:31.599Z,21.60
2019-06-15T05:24:00.277Z,21.60
2019-06-15T05:26:28.946Z,21.60
2019-06-15T05:31:25.893Z,21.40
2019-06-15T05:33:54.529Z,21.90
2019-06-15T05:38:51.553Z,21.90
2019-06-15T05:41:20.228Z,21.90
2019-06-15T05:43:48.847Z,21.60
2019-06-15T05:46:17.559Z,21.90
2019-06-15T05:48:46.315Z,22.10
2019-06-15T05:51:14.952Z,22.00
2019-06-15T05:53:43.700Z,22.60
2019-06-15T05:56:12.378Z,22.80
2019-06-15T05:58:41.070Z,22.80
2019-06-15T06:01:09.826Z,23.20
2019-06-15T06:03:38.508Z,23.10
2019-06-15T06:06:07.232Z,22.80
2019-06-15T06:08:35.988Z,23.30
2019-06-15T06:11:04.734Z,23.50
2019-06-15T06:13:33.483Z,23.50
2019-06-15T06:16:02.347Z,23.70
2019-06-15T06:18:31.161Z,23.70
2019-06-15T06:20:59.765Z,23.70
2019-06-15T06:23:28.595Z,23.90
2019-06-15T06:25:57.186Z,23.90
2019-06-15T06:28:25.924Z,23.90
2019-06-15T06:30:54.555Z,23.80
2019-06-15T06:33:23.264Z,23.90
2019-06-15T06:35:51.894Z,24.00
2019-06-15T06:38:20.492Z,24.10
2019-06-15T06:40:49.102Z,24.40
2019-06-15T06:43:17.896Z,24.60
2019-06-15T06:45:46.640Z,24.60
2019-06-15T06:48:15.364Z,25.40
2019-06-15T06:50:44.567Z,25.00
2019-06-15T06:53:13.214Z,25.10
2019-06-15T06:55:42.654Z,25.40
2019-06-15T06:58:11.346Z,25.70
2019-06-15T07:00:40.015Z,26.10
2019-06-15T07:03:08.727Z,25.90
2019-06-15T07:05:37.450Z,26.10
2019-06-15T07:08:06.145Z,26.00
2019-06-15T07:10:34.809Z,26.00
2019-06-15T07:13:03.457Z,26.00
2019-06-15T07:15:32.213Z,25.80
2019-06-15T07:18:00.942Z,25.20
2019-06-15T07:20:29.708Z,24.90
2019-06-15T07:22:58.360Z,25.30
2019-06-15T07:25:27.056Z,25.20
2019-06-15T07:28:07.557Z,25.50
2019-06-15T07:30:26.095Z,26.10
2019-06-15T07:32:54.692Z,25.90
2019-06-15T07:35:23.432Z,26.30
2019-06-15T07:37:52.165Z,26.20
2019-06-15T07:40:20.878Z,26.00
2019-06-15T07:45:17.963Z,25.60
2019-06-15T07:47:46.579Z,25.90
2019-06-15T07:50:15.305Z,25.60
2019-06-15T07:52:44.040Z,25.70
2019-06-15T07:55:12.879Z,25.60
2019-06-15T07:57:41.584Z,25.50
2019-06-15T08:02:38.899Z,25.50
2019-06-15T08:05:07.968Z,26.10
2019-06-15T08:07:36.647Z,26.10
2019-06-15T08:10:08.756Z,26.80
2019-06-15T08:12:37.511Z,27.20
2019-06-15T08:17:35.036Z,27.50
2019-06-15T08:20:06.728Z,27.80
2019-06-15T08:22:35.515Z,27.50
2019-06-15T08:25:06.149Z,26.80
2019-06-15T08:27:35.225Z,27.90
2019-06-15T08:30:08.269Z,27.70
2019-06-15T08:32:36.976Z,27.90
2019-06-15T08:35:06.415Z,28.40
2019-06-15T08:37:35.656Z,28.30
2019-06-15T08:42:35.831Z,28.30
2019-06-15T08:45:07.047Z,28.30
2019-06-15T08:47:35.710Z,28.20
2019-06-15T08:50:05.557Z,28.70
2019-06-15T08:52:34.410Z,28.60
2019-06-15T08:55:04.163Z,28.90
2019-06-15T08:57:32.791Z,28.30
2019-06-15T09:00:01.480Z,28.80
2019-06-15T09:02:30.126Z,28.70
2019-06-15T09:04:58.832Z,28.90
2019-06-15T09:07:27.625Z,28.80
2019-06-15T09:09:56.224Z,28.60
2019-06-15T09:12:25.191Z,28.70
2019-06-15T09:14:53.805Z,29.10
2019-06-15T09:17:22.561Z,29.30
2019-06-15T09:19:51.317Z,29.00
2019-06-15T09:22:20.000Z,29.10
2019-06-15T09:24:48.648Z,29.50
2019-06-15T09:27:17.335Z,28.90
2019-06-15T09:29:45.985Z,29.40
2019-06-15T09:32:14.688Z,29.60
2019-06-15T09:34:43.413Z,29.90
2019-06-15T09:37:12.116Z,30.50
2019-06-15T09:39:40.864Z,30.70
2019-06-15T09:42:09.561Z,30.70
2019-06-15T09:44:38.226Z,31.00
2019-06-15T09:47:06.805Z,31.00
2019-06-15T09:49:35.548Z,30.80
2019-06-15T09:52:04.218Z,30.60
2019-06-15T09:54:32.970Z,30.50
2019-06-15T09:57:01.549Z,30.50
2019-06-15T09:59:30.229Z,30.40
2019-06-15T10:01:58.906Z,30.40
2019-06-15T10:04:27.558Z,30.20
2019-06-15T10:06:57.195Z,30.20
2019-06-15T10:09:25.860Z,30.30
2019-06-15T10:11:54.542Z,30.40
2019-06-15T10:14:23.151Z,30.40
2019-06-15T10:16:51.879Z,30.60
2019-06-15T10:19:20.495Z,30.70
2019-06-15T10:21:49.223Z,30.60
2019-06-15T10:24:17.832Z,30.70
2019-06-15T10:26:46.423Z,30.70
2019-06-15T10:29:15.102Z,30.50
2019-06-15T10:31:43.766Z,30.50
2019-06-15T10:34:12.527Z,30.70
2019-06-15T10:36:41.179Z,30.80
2019-06-15T10:39:09.931Z,30.70
2019-06-15T10:41:38.640Z,30.60
2019-06-15T10:44:07.390Z,30.60
2019-06-15T10:46:36.036Z,30.70
2019-06-15T10:49:04.802Z,30.70
2019-06-15T10:51:33.556Z,30.80
2019-06-15T10:54:02.225Z,31.30
2019-06-15T10:56:30.891Z,31.30
2019-06-15T10:58:59.556Z,31.10
2019-06-15T11:01:28.172Z,31.30
2019-06-15T11:03:56.803Z,31.50
2019-06-15T11:06:25.533Z,31.60
2019-06-15T11:08:54.263Z,31.80
2019-06-15T11:11:23.519Z,31.70
2019-06-15T11:13:52.733Z,31.50
2019-06-15T11:16:21.490Z,31.70
2019-06-15T11:18:50.227Z,31.80
2019-06-15T11:21:18.988Z,30.80
2019-06-15T11:23:47.666Z,30.70
2019-06-15T11:26:16.414Z,30.30
2019-06-15T11:28:45.057Z,29.90
2019-06-15T11:31:13.813Z,30.00
2019-06-15T11:33:42.537Z,30.20
2019-06-15T11:36:11.306Z,30.50
2019-06-15T11:38:39.910Z,30.40
2019-06-15T11:41:08.581Z,29.50
2019-06-15T11:43:37.397Z,29.10
2019-06-15T11:46:06.066Z,29.30
2019-06-15T11:48:40.102Z,29.50
2019-06-15T11:51:08.296Z,29.40
2019-06-15T11:53:37.078Z,29.50
2019-06-15T11:56:05.831Z,29.40
2019-06-15T11:58:34.602Z,29.10
2019-06-15T12:01:03.355Z,28.60
2019-06-15T12:03:32.794Z,28.60
2019-06-15T12:06:04.452Z,28.30
2019-06-15T12:08:33.206Z,28.40
2019-06-15T12:11:01.815Z,28.60
2019-06-15T12:13:30.481Z,28.50
2019-06-15T12:15:59.136Z,28.60
2019-06-15T12:18:27.930Z,28.80
2019-06-15T12:20:56.613Z,29.70
2019-06-15T12:23:25.330Z,29.80
2019-06-15T12:25:54.211Z,30.10
2019-06-15T12:28:23.909Z,30.40
2019-06-15T12:30:52.666Z,31.00
2019-06-15T12:33:21.635Z,31.20
2019-06-15T12:35:50.415Z,31.30
2019-06-15T12:38:19.160Z,31.40
2019-06-15T12:40:47.909Z,31.10
2019-06-15T12:45:45.119Z,30.20
2019-06-15T12:48:13.895Z,30.00
2019-06-15T12:50:42.569Z,29.30
2019-06-15T12:53:11.320Z,29.20
2019-06-15T12:55:40.086Z,28.70
2019-06-15T12:58:09.817Z,28.80
2019-06-15T13:00:38.974Z,28.80
2019-06-15T13:03:07.730Z,28.90
2019-06-15T13:05:36.411Z,28.80
2019-06-15T13:08:05.128Z,28.40
2019-06-15T13:10:33.852Z,28.50
2019-06-15T13:13:02.608Z,28.20
2019-06-15T13:15:31.326Z,28.20
2019-06-15T13:18:01.419Z,28.30
2019-06-15T13:20:30.553Z,28.60
2019-06-15T13:22:59.753Z,28.70
2019-06-15T13:25:28.489Z,28.70
2019-06-15T13:27:57.299Z,28.60
2019-06-15T13:30:26.177Z,28.50
2019-06-15T13:32:54.915Z,28.60
2019-06-15T13:35:23.525Z,28.40
2019-06-15T13:37:52.120Z,28.30
2019-06-15T13:40:20.895Z,28.40
2019-06-15T13:42:49.680Z,28.30
2019-06-15T13:45:18.644Z,27.80
2019-06-15T13:47:47.280Z,27.80
2019-06-15T13:50:15.979Z,27.50
2019-06-15T13:52:44.627Z,27.40
2019-06-15T13:55:13.699Z,27.30
2019-06-15T13:57:42.451Z,27.20
2019-06-15T14:00:11.403Z,27.30
2019-06-15T14:02:40.076Z,27.00
2019-06-15T14:05:09.451Z,27.30
2019-06-15T14:07:38.158Z,27.30
2019-06-15T14:10:07.053Z,27.30
2019-06-15T14:12:35.702Z,27.30
2019-06-15T14:15:07.220Z,27.40
2019-06-15T14:17:35.881Z,27.40
2019-06-15T14:20:06.144Z,27.30
2019-06-15T14:22:34.813Z,27.10
2019-06-15T14:25:05.158Z,27.20
2019-06-15T14:27:33.872Z,27.20
2019-06-15T14:30:02.656Z,27.10
2019-06-15T14:32:31.361Z,27.00
2019-06-15T14:34:59.978Z,27.00
2019-06-15T14:37:28.629Z,26.90
2019-06-15T14:39:57.250Z,26.90
2019-06-15T14:42:25.974Z,26.90
2019-06-15T14:44:54.778Z,26.80
2019-06-15T14:47:23.515Z,26.60
2019-06-15T14:49:52.260Z,26.50
2019-06-15T14:52:21.093Z,26.50
2019-06-15T14:54:49.797Z,26.50
2019-06-15T14:57:18.598Z,26.50
2019-06-15T14:59:59.687Z,26.50
2019-06-15T15:02:17.758Z,26.20
2019-06-15T15:04:46.535Z,26.30
2019-06-15T15:07:16.935Z,26.30
2019-06-15T15:14:46.949Z,25.70
2019-06-15T15:17:17.257Z,26.00
2019-06-15T15:19:46.675Z,26.00
2019-06-15T15:24:45.264Z,25.90
2019-06-15T15:27:14.092Z,25.90
2019-06-15T15:29:42.922Z,25.90
2019-06-15T15:32:21.669Z,25.90
2019-06-15T15:34:42.047Z,25.90
2019-06-15T15:37:10.917Z,26.00
2019-06-15T15:39:39.673Z,26.00
2019-06-15T15:42:08.485Z,26.10
2019-06-15T15:44:37.137Z,26.20
2019-06-15T15:47:07.090Z,26.60
2019-06-15T15:49:36.667Z,26.40
2019-06-15T15:52:05.427Z,26.70
2019-06-15T15:54:36.029Z,26.90
2019-06-15T15:57:06.452Z,27.10
2019-06-15T15:59:36.342Z,27.40
2019-06-15T16:02:06.700Z,27.50
2019-06-15T16:04:37.116Z,27.60
2019-06-15T16:07:06.600Z,27.70
2019-06-15T16:09:36.082Z,27.70
2019-06-15T16:12:06.995Z,27.70
2019-06-15T16:14:36.947Z,27.70
2019-06-15T16:17:06.772Z,27.80
2019-06-15T16:19:35.543Z,27.60
2019-06-15T16:22:04.278Z,27.40
2019-06-15T16:24:32.969Z,27.60
2019-06-15T16:27:01.737Z,27.40
2019-06-15T16:29:30.515Z,27.20
2019-06-15T16:31:59.242Z,27.30
2019-06-15T16:34:27.880Z,27.00
2019-06-15T16:36:57.092Z,27.00
2019-06-15T16:39:26.939Z,26.90
2019-06-15T16:41:56.155Z,26.80
2019-06-15T16:46:53.257Z,26.40
2019-06-15T16:49:22.078Z,26.10
2019-06-15T16:51:50.752Z,26.30
2019-06-15T16:56:47.921Z,25.80
2019-06-15T16:59:16.702Z,25.90
2019-06-15T17:04:13.757Z,25.40
2019-06-15T17:06:42.432Z,25.50
2019-06-15T17:16:36.771Z,25.40
2019-06-15T17:24:06.712Z,25.00
2019-06-15T17:26:36.470Z,25.20
2019-06-15T17:34:07.293Z,25.00
2019-06-15T17:39:08.258Z,25.10
2019-06-15T17:41:37.021Z,24.90
2019-06-15T17:46:34.912Z,24.50
2019-06-15T17:56:28.662Z,24.00
2019-06-15T17:58:57.467Z,23.40
2019-06-15T18:06:26.734Z,22.70
2019-06-15T18:08:55.901Z,22.60
2019-06-15T18:11:26.219Z,22.40
2019-06-15T18:13:56.671Z,22.10
2019-06-15T18:16:28.046Z,22.20
2019-06-15T18:18:56.215Z,22.40
2019-06-15T18:21:26.910Z,22.10
2019-06-15T18:23:57.303Z,22.60
2019-06-15T18:26:26.738Z,22.40
2019-06-15T18:28:55.578Z,22.50
2019-06-15T18:31:26.807Z,22.60
2019-06-15T18:36:26.588Z,22.60
2019-06-15T18:46:27.346Z,22.60
2019-06-15T18:53:52.201Z,22.80
2019-06-15T19:06:16.811Z,22.20
2019-06-15T19:13:46.661Z,22.10
2019-06-15T19:16:16.637Z,22.30
2019-06-15T19:18:46.237Z,22.30
2019-06-15T19:26:16.464Z,22.20
2019-06-15T19:28:45.967Z,22.00
2019-06-15T19:31:14.975Z,22.10
2019-06-15T19:33:46.669Z,22.00
2019-06-15T19:36:14.248Z,22.70
2019-06-15T19:38:42.961Z,22.40
2019-06-15T19:41:11.813Z,22.60
2019-06-15T19:43:40.415Z,22.60
2019-06-15T19:46:09.163Z,22.70
2019-06-15T19:48:37.971Z,22.70
2019-06-15T19:53:36.398Z,22.40
2019-06-15T19:56:06.874Z,22.30
2019-06-15T19:58:35.765Z,22.30
2019-06-15T20:01:06.793Z,22.20
2019-06-15T20:06:06.451Z,21.80
2019-06-15T20:08:36.179Z,21.80
2019-06-15T20:11:07.320Z,21.60
2019-06-15T20:18:37.599Z,21.10
2019-06-15T20:28:35.770Z,20.90
2019-06-15T20:31:06.652Z,20.70
2019-06-15T20:53:36.775Z,21.00
2019-06-15T21:03:36.694Z,20.30
2019-06-15T21:13:37.447Z,19.80
2019-06-15T21:21:06.912Z,19.70
2019-06-15T21:23:37.359Z,19.60
2019-06-15T21:26:06.956Z,19.30
2019-06-15T21:33:36.066Z,19.50
2019-06-15T21:43:36.297Z,18.50
2019-06-15T21:46:06.337Z,18.50
2019-06-15T21:56:07.163Z,19.30
2019-06-15T21:58:36.663Z,19.30
2019-06-15T22:03:47.948Z,19.00
2019-06-15T22:06:17.646Z,18.70
2019-06-15T22:11:16.002Z,18.80
2019-06-15T22:21:16.125Z,19.20
2019-06-15T22:26:17.154Z,18.80
2019-06-15T22:33:47.291Z,18.60
2019-06-15T22:36:24.911Z,18.90
2019-06-15T22:53:47.138Z,19.00
2019-06-15T22:58:46.270Z,19.10
2019-06-15T23:06:16.124Z,18.80
2019-06-15T23:08:47.103Z,19.10
2019-06-15T23:21:11.842Z,18.90
2019-06-15T23:46:06.612Z,19.30
2019-06-15T23:48:36.410Z,19.50
2019-06-15T23:56:06.285Z,19.70
2019-06-15T23:58:37.030Z,19.60
